Terminal Aerodrome Forecast
Issued by NWS Cleveland, OH

Home | Current Version | Previous Version | Graphics & Text | Print | Product List | Glossary On
Versions: 1 2 3 4 5 6 7 8 9 10 11 12 13 14 15 16 17 18 19 20 21 22 23
000
FTUS41 KCLE 260500
TAFMFD
TAF
KMFD 260540Z 2606/2706 20010KT P6SM SCT050 BKN120
     FM261000 20006KT 5SM BR OVC020
     FM261500 20010KT P6SM BKN035
     FM261900 19012G20KT P6SM BKN040
     FM270300 19015G22KT P6SM VCSH BKN040 OVC100=

USA.gov is the U.S. government's official web portal to all federal, state and local government web resources and services.